DW3338 Cozumel MX current weather conditions

sailwx.info

Wind from 360 at 1 knots gusting 3

Air temperature 26.1° C
Dewpoint 17.2° C

Last reported at 2020-Sep-25 12:00 UTC.
Time now 2020-Sep-25 13:08 UTC

Location: N 20°30' W 086°57'.
View on Google Maps.

See reports from other nearby stations

  
Tides and Currents Weather Stations Pressure Air Temp Water Temp Dewpoint Dewpoint Depression Visibility Wind Speed Wind Dir Waves Ship Positions
date/time (UTC)wind fromknots sea level pressurealtimeterstation pressurevisibilityair tempwater tempwave heightnotes
2020-Sep-25 12:00 360 1 gusting 3 26.1
2020-Sep-25 03:30 360 1 gusting 3 27.8
2020-Sep-25 03:15 360 0 gusting 1 27.8
2020-Sep-25 03:00 360 0 gusting 2 27.8
2020-Sep-25 02:45 360 1 gusting 3 27.8
2020-Sep-25 02:30 360 2 gusting 4 27.8
2020-Sep-25 02:15 360 1 gusting 3 27.8
2020-Sep-25 02:00 360 1 gusting 3 27.8
2020-Sep-25 01:45 360 27.8
2020-Sep-25 01:30 360 0 gusting 4 27.8
2020-Sep-25 01:15 360 2 gusting 4 27.8
2020-Sep-25 01:00 360 1 gusting 3 27.8
2020-Sep-25 00:45 360 2 gusting 6 27.8
2020-Sep-25 00:30 360 2 gusting 4 28.3
2020-Sep-25 00:15 360 2 gusting 5 28.3
2020-Sep-25 00:00 360 2 gusting 5 28.3
2020-Sep-24 23:45 360 1 gusting 4 28.9
2020-Sep-24 23:30 360 1 gusting 4 29.4
2020-Sep-24 23:15 360 2 gusting 4 29.4
2020-Sep-24 23:00 360 1 gusting 4 29.4
2020-Sep-24 22:45 360 1 gusting 3 29.4
2020-Sep-24 22:30 360 2 gusting 4 29.4
2020-Sep-24 22:16 012 2 gusting 5 30.6
2020-Sep-24 22:00 360 1 gusting 6 30.6
2020-Sep-24 21:45 360 2 gusting 6 30.0
2020-Sep-24 21:30 360 3 gusting 6 30.0
2020-Sep-24 21:15 360 3 gusting 5 29.4
2020-Sep-24 21:00 360 2 gusting 4 29.4
2020-Sep-24 20:45 360 3 gusting 5 28.9
2020-Sep-24 20:30 360 0 gusting 4 27.8
2020-Sep-24 20:15 360 2 gusting 4 27.2
2020-Sep-24 20:00 360 3 gusting 5 26.1
2020-Sep-24 19:45 360 4 gusting 6 26.7
2020-Sep-24 19:30 360 4 gusting 7 27.8
2020-Sep-24 19:15 360 5 gusting 8 29.4
2020-Sep-24 19:00 360 5 gusting 7 30.0
2020-Sep-24 18:45 360 5 gusting 8 30.0
2020-Sep-24 18:30 016 5 gusting 7 30.6
2020-Sep-24 18:15 360 4 gusting 7 30.0
2020-Sep-24 18:00 360 4 gusting 6 30.0
2020-Sep-24 17:45 009 4 gusting 7 28.9
2020-Sep-24 17:30 360 3 gusting 5 28.9
2020-Sep-24 17:15 360 0 gusting 3 28.9
2020-Sep-24 17:00 360 3 gusting 6 29.4
2020-Sep-24 16:45 360 5 gusting 6 29.4
2020-Sep-24 16:30 360 3 gusting 6 28.9
2020-Sep-24 16:15 009 1 gusting 6 28.9
2020-Sep-24 16:00 360 3 gusting 6 28.9
2020-Sep-24 15:45 017 4 gusting 8 28.9
2020-Sep-24 15:30 360 5 gusting 6 29.4
2020-Sep-24 15:15 360 0 gusting 1 29.4
2020-Sep-24 15:00 360 3 gusting 5 28.9
2020-Sep-24 14:45 360 1 gusting 3 28.9
2020-Sep-24 14:30 360 1 gusting 4 29.4
2020-Sep-24 14:15 360 0 gusting 3 29.4
2020-Sep-24 14:00 360 1 gusting 3 28.3
2020-Sep-24 13:45 360 1 gusting 3 27.8
2020-Sep-24 13:30 360 0 gusting 1 27.8
2020-Sep-24 13:15 036 27.8
2020-Sep-24 13:00 360 0 gusting 1 27.8
2020-Sep-24 12:45 360 1 gusting 3 27.2
2020-Sep-24 12:30 360 0 gusting 1 27.2
2020-Sep-24 12:15 360 26.7
2020-Sep-24 12:00 360 26.7
2020-Sep-24 02:45 360 5 gusting 11 27.2
2020-Sep-24 02:30 034 6 gusting 9 27.8
2020-Sep-24 02:15 360 5 gusting 10 27.8
2020-Sep-24 02:00 360 7 gusting 12 27.8
2020-Sep-24 01:45 013 5 gusting 10 27.8
2020-Sep-24 01:30 021 4 gusting 9 27.8
2020-Sep-24 01:15 360 3 gusting 5 27.8
2020-Sep-24 01:00 360 4 gusting 6 27.8
2020-Sep-24 00:45 360 4 gusting 6 27.8
2020-Sep-24 00:30 360 3 gusting 5 27.8
2020-Sep-24 00:15 360 3 gusting 6 27.8
2020-Sep-24 00:00 020 3 gusting 6 27.8
2020-Sep-23 23:45 014 2 gusting 6 27.8
2020-Sep-23 23:30 009 3 gusting 9 27.2
2020-Sep-23 23:15 030 5 gusting 9 27.2
2020-Sep-23 23:00 360 6 gusting 13 27.2
2020-Sep-23 22:45 360 6 gusting 20 27.2
2020-Sep-23 22:30 360 9 gusting 16 29.4
2020-Sep-23 22:15 360 6 gusting 11 30.6
2020-Sep-23 22:00 360 7 gusting 11 30.6
2020-Sep-23 21:45 360 5 gusting 8 31.1
2020-Sep-23 21:30 029 5 gusting 8 31.1
2020-Sep-23 21:15 022 4 gusting 7 30.6
2020-Sep-23 21:00 360 2 gusting 6 30.6
2020-Sep-23 20:45 020 4 gusting 6 30.6
2020-Sep-23 20:30 360 3 gusting 6 30.0
2020-Sep-23 20:15 360 3 gusting 6 30.0
2020-Sep-23 20:00 360 3 gusting 6 30.0
2020-Sep-23 19:45 360 4 gusting 6 30.0
2020-Sep-23 19:30 360 1 gusting 6 29.4
2020-Sep-23 19:15 360 1 gusting 5 28.9
2020-Sep-23 19:00 360 1 gusting 5 28.3
2020-Sep-23 18:45 360 2 gusting 5 28.3
2020-Sep-23 18:30 360 2 gusting 5 27.8
2020-Sep-23 18:15 360 2 gusting 5 27.2
2020-Sep-23 18:00 360 4 gusting 8 27.2
2020-Sep-23 17:45 360 6 gusting 7 28.3
2020-Sep-23 17:30 360 3 gusting 6 30.0
2020-Sep-23 17:15 010 4 gusting 7 30.6
2020-Sep-23 17:00 022 2 gusting 7 30.6
2020-Sep-23 16:45 360 4 gusting 7 30.0
2020-Sep-23 16:30 360 4 gusting 6 30.0
2020-Sep-23 16:15 360 5 gusting 6 30.0
2020-Sep-23 16:00 360 3 gusting 6 29.4
2020-Sep-23 15:45 360 3 gusting 5 29.4
2020-Sep-23 15:30 018 4 gusting 6 29.4
2020-Sep-23 15:15 360 2 gusting 6 29.4
2020-Sep-23 15:00 360 2 gusting 6 28.9
2020-Sep-23 14:45 013 4 gusting 6 28.3
2020-Sep-23 14:30 360 1 gusting 4 27.8
2020-Sep-23 14:15 360 3 gusting 4 27.8
2020-Sep-23 14:00 015 2 gusting 4 27.8
2020-Sep-23 13:45 017 2 gusting 5 27.8
2020-Sep-23 13:30 360 3 gusting 6 27.2
2020-Sep-23 13:15 360 2 gusting 6 27.2
2020-Sep-23 13:00 360 3 gusting 5 27.2